Time;durP1;ratioP1;P1;durP2;ratioP2;P2;SDS_P1;SDS_P2;PMS_P1;PMS_P2;Temp;Humidity;BMP_temperature;BMP_pressure;BME280_temperature;BME280_humidity;BME280_pressure;Samples;Min_cycle;Max_cycle;Signal;HPM_P1;HPM_P2
2022/09/11 00:00:00;;;;;;;0.4;0.4;;;;;;;15.6;100.0;101490;;;;
2022/09/11 00:01:00;;;;;;;0.4;0.4;;;;;;;15.6;100.0;101490;;;;
2022/09/11 00:02:00;;;;;;;0.4;0.4;;;;;;;15.6;100.0;101500;;;;
2022/09/11 00:03:00;;;;;;;0.4;0.4;;;;;;;15.6;100.0;101500;;;;
2022/09/11 00:04:00;;;;;;;0.4;0.4;;;;;;;15.6;100.0;101500;;;;
2022/09/11 00:05:00;;;;;;;0.4;0.4;;;;;;;15.6;100.0;101500;;;;
2022/09/11 00:06:01;;;;;;;0.4;0.4;;;;;;;15.6;100.0;101500;;;;
2022/09/11 00:07:00;;;;;;;0.4;0.4;;;;;;;15.6;100.0;101500;;;;
2022/09/11 00:08:00;;;;;;;0.4;0.4;;;;;;;15.6;100.0;101500;;;;
2022/09/11 00:09:01;;;;;;;0.4;0.4;;;;;;;15.6;100.0;101500;;;;
2022/09/11 00:10:00;;;;;;;0.4;0.4;;;;;;;15.6;100.0;101500;;;;
2022/09/11 00:11:03;;;;;;;0.4;0.4;;;;;;;15.6;100.0;101500;;;;
2022/09/11 00:12:00;;;;;;;0.4;0.4;;;;;;;15.6;100.0;101500;;;;
2022/09/11 00:13:00;;;;;;;0.4;0.4;;;;;;;15.6;100.0;101500;;;;
2022/09/11 00:14:00;;;;;;;0.6;0.6;;;;;;;15.6;100.0;101490;;;;
2022/09/11 00:15:00;;;;;;;0.6;0.6;;;;;;;15.6;100.0;101490;;;;
2022/09/11 00:16:02;;;;;;;0.6;0.6;;;;;;;15.7;100.0;101490;;;;
2022/09/11 00:17:00;;;;;;;0.6;0.6;;;;;;;15.7;100.0;101490;;;;
2022/09/11 00:18:00;;;;;;;0.6;0.6;;;;;;;15.7;100.0;101490;;;;
2022/09/11 00:19:02;;;;;;;0.6;0.6;;;;;;;15.7;100.0;101490;;;;
2022/09/11 00:20:00;;;;;;;0.6;0.6;;;;;;;15.7;100.0;101480;;;;
2022/09/11 00:21:00;;;;;;;0.6;0.6;;;;;;;15.7;100.0;101480;;;;
2022/09/11 00:22:00;;;;;;;0.6;0.6;;;;;;;15.7;100.0;101480;;;;
2022/09/11 00:23:03;;;;;;;0.6;0.6;;;;;;;15.7;100.0;101480;;;;
2022/09/11 00:24:00;;;;;;;0.6;0.6;;;;;;;15.7;100.0;101480;;;;
2022/09/11 00:25:00;;;;;;;0.6;0.6;;;;;;;15.7;100.0;101480;;;;
2022/09/11 00:26:01;;;;;;;0.6;0.6;;;;;;;15.5;100.0;101480;;;;
2022/09/11 00:27:00;;;;;;;0.6;0.6;;;;;;;15.5;100.0;101480;;;;
2022/09/11 00:28:00;;;;;;;0.6;0.6;;;;;;;15.6;100.0;101480;;;;
2022/09/11 00:29:00;;;;;;;0.6;0.6;;;;;;;15.6;100.0;101480;;;;
2022/09/11 00:30:00;;;;;;;0.6;0.6;;;;;;;15.6;100.0;101480;;;;
2022/09/11 00:31:01;;;;;;;0.6;0.6;;;;;;;15.6;100.0;101480;;;;
2022/09/11 00:32:00;;;;;;;0.6;0.6;;;;;;;15.5;100.0;101490;;;;
2022/09/11 00:33:00;;;;;;;0.6;0.6;;;;;;;15.5;100.0;101490;;;;
2022/09/11 00:34:00;;;;;;;0.5;0.5;;;;;;;15.5;100.0;101490;;;;
2022/09/11 00:35:00;;;;;;;0.5;0.5;;;;;;;15.5;100.0;101490;;;;
2022/09/11 00:36:02;;;;;;;0.5;0.5;;;;;;;15.5;100.0;101490;;;;
2022/09/11 00:37:00;;;;;;;0.5;0.5;;;;;;;15.5;100.0;101490;;;;
2022/09/11 00:38:00;;;;;;;0.5;0.5;;;;;;;15.5;100.0;101490;;;;
2022/09/11 00:39:00;;;;;;;0.5;0.5;;;;;;;15.5;100.0;101490;;;;
2022/09/11 00:40:00;;;;;;;0.5;0.5;;;;;;;15.5;100.0;101490;;;;
2022/09/11 00:41:01;;;;;;;0.5;0.5;;;;;;;15.5;100.0;101490;;;;
2022/09/11 00:42:01;;;;;;;0.5;0.5;;;;;;;15.5;100.0;101490;;;;
2022/09/11 00:43:00;;;;;;;0.5;0.5;;;;;;;15.5;100.0;101490;;;;
2022/09/11 00:44:03;;;;;;;0.5;0.5;;;;;;;15.5;100.0;101490;;;;
2022/09/11 00:45:02;;;;;;;0.5;0.5;;;;;;;15.5;100.0;101490;;;;
2022/09/11 00:46:02;;;;;;;0.5;0.5;;;;;;;15.4;100.0;101490;;;;
2022/09/11 00:47:01;;;;;;;0.5;0.5;;;;;;;15.4;100.0;101490;;;;
2022/09/11 00:48:00;;;;;;;0.5;0.5;;;;;;;15.4;100.0;101490;;;;
2022/09/11 00:49:01;;;;;;;0.5;0.5;;;;;;;15.4;100.0;101490;;;;
2022/09/11 00:50:06;;;;;;;0.5;0.5;;;;;;;15.4;100.0;101490;;;;
2022/09/11 00:51:02;;;;;;;0.5;0.5;;;;;;;15.4;100.0;101490;;;;
2022/09/11 00:52:10;;;;;;;0.5;0.5;;;;;;;15.4;100.0;101490;;;;
2022/09/11 00:53:01;;;;;;;0.5;0.5;;;;;;;15.4;100.0;101490;;;;
2022/09/11 00:54:02;;;;;;;0.6;0.6;;;;;;;15.4;100.0;101490;;;;
2022/09/11 00:55:05;;;;;;;0.6;0.6;;;;;;;15.4;100.0;101490;;;;
2022/09/11 00:56:02;;;;;;;0.6;0.6;;;;;;;15.4;100.0;101490;;;;
2022/09/11 00:57:03;;;;;;;0.6;0.6;;;;;;;15.4;100.0;101490;;;;
2022/09/11 00:58:02;;;;;;;0.6;0.6;;;;;;;15.3;100.0;101490;;;;
2022/09/11 00:59:00;;;;;;;0.6;0.6;;;;;;;15.3;100.0;101490;;;;
2022/09/11 01:00:00;;;;;;;0.6;0.6;;;;;;;15.3;100.0;101490;;;;
2022/09/11 01:01:02;;;;;;;0.6;0.6;;;;;;;15.3;100.0;101490;;;;
2022/09/11 01:02:00;;;;;;;0.6;0.6;;;;;;;15.3;100.0;101490;;;;
2022/09/11 01:03:00;;;;;;;0.6;0.6;;;;;;;15.3;100.0;101490;;;;
2022/09/11 01:04:02;;;;;;;0.6;0.6;;;;;;;15.3;100.0;101490;;;;
2022/09/11 01:05:01;;;;;;;0.6;0.6;;;;;;;15.3;100.0;101490;;;;
2022/09/11 01:06:00;;;;;;;0.6;0.6;;;;;;;15.3;100.0;101490;;;;
2022/09/11 01:07:00;;;;;;;0.6;0.6;;;;;;;15.3;100.0;101490;;;;
2022/09/11 01:08:02;;;;;;;0.6;0.6;;;;;;;15.2;100.0;101500;;;;
2022/09/11 01:09:00;;;;;;;0.6;0.6;;;;;;;15.2;100.0;101500;;;;
2022/09/11 01:10:00;;;;;;;0.6;0.6;;;;;;;15.2;100.0;101500;;;;
2022/09/11 01:11:11;;;;;;;0.6;0.6;;;;;;;15.2;100.0;101500;;;;
2022/09/11 01:12:10;;;;;;;0.6;0.6;;;;;;;15.2;100.0;101500;;;;
2022/09/11 01:13:06;;;;;;;0.6;0.6;;;;;;;15.2;100.0;101500;;;;
2022/09/11 01:14:03;;;;;;;0.5;0.5;;;;;;;15.3;100.0;101500;;;;
2022/09/11 01:15:03;;;;;;;0.5;0.5;;;;;;;15.3;100.0;101500;;;;
2022/09/11 01:16:08;;;;;;;0.5;0.5;;;;;;;15.2;100.0;101500;;;;
2022/09/11 01:17:00;;;;;;;0.5;0.5;;;;;;;15.2;100.0;101500;;;;
2022/09/11 01:18:05;;;;;;;0.5;0.5;;;;;;;15.1;100.0;101510;;;;
2022/09/11 01:19:10;;;;;;;0.5;0.5;;;;;;;15.1;100.0;101510;;;;
2022/09/11 01:20:10;;;;;;;0.5;0.5;;;;;;;15.1;100.0;101510;;;;
2022/09/11 01:21:07;;;;;;;0.5;0.5;;;;;;;15.1;100.0;101510;;;;
2022/09/11 01:22:09;;;;;;;0.5;0.5;;;;;;;15.1;100.0;101510;;;;
2022/09/11 01:23:11;;;;;;;0.5;0.5;;;;;;;15.1;100.0;101510;;;;
2022/09/11 01:24:10;;;;;;;0.5;0.5;;;;;;;15.1;100.0;101510;;;;
2022/09/11 01:25:10;;;;;;;0.5;0.5;;;;;;;15.1;100.0;101510;;;;
2022/09/11 01:26:10;;;;;;;0.5;0.5;;;;;;;15.1;100.0;101510;;;;
2022/09/11 01:27:10;;;;;;;0.5;0.5;;;;;;;15.1;100.0;101510;;;;
2022/09/11 01:28:06;;;;;;;0.5;0.5;;;;;;;15.0;100.0;101510;;;;
2022/09/11 01:29:00;;;;;;;0.5;0.5;;;;;;;15.0;100.0;101510;;;;
2022/09/11 01:30:03;;;;;;;0.5;0.5;;;;;;;15.0;100.0;101510;;;;
2022/09/11 01:31:04;;;;;;;0.5;0.5;;;;;;;15.0;100.0;101510;;;;
2022/09/11 01:32:10;;;;;;;0.5;0.5;;;;;;;15.0;100.0;101510;;;;
2022/09/11 01:33:10;;;;;;;0.5;0.5;;;;;;;15.0;100.0;101510;;;;
2022/09/11 01:34:05;;;;;;;0.5;0.5;;;;;;;15.0;100.0;101510;;;;
2022/09/11 01:35:10;;;;;;;0.5;0.5;;;;;;;15.0;100.0;101510;;;;
2022/09/11 01:36:03;;;;;;;0.5;0.5;;;;;;;15.0;100.0;101510;;;;
2022/09/11 01:37:03;;;;;;;0.5;0.5;;;;;;;15.0;100.0;101510;;;;
2022/09/11 01:38:02;;;;;;;0.5;0.5;;;;;;;14.9;100.0;101520;;;;
2022/09/11 01:39:01;;;;;;;0.5;0.5;;;;;;;14.9;100.0;101520;;;;
2022/09/11 01:40:02;;;;;;;0.5;0.5;;;;;;;14.9;100.0;101510;;;;
2022/09/11 01:41:09;;;;;;;0.5;0.5;;;;;;;14.9;100.0;101510;;;;
2022/09/11 01:42:03;;;;;;;0.5;0.5;;;;;;;14.9;100.0;101520;;;;
2022/09/11 01:43:05;;;;;;;0.5;0.5;;;;;;;14.9;100.0;101520;;;;
2022/09/11 01:44:02;;;;;;;0.5;0.5;;;;;;;14.8;100.0;101520;;;;
2022/09/11 01:45:01;;;;;;;0.5;0.5;;;;;;;14.8;100.0;101520;;;;
2022/09/11 01:46:01;;;;;;;0.5;0.5;;;;;;;14.8;100.0;101520;;;;
2022/09/11 01:47:02;;;;;;;0.5;0.5;;;;;;;14.8;100.0;101520;;;;
2022/09/11 01:48:01;;;;;;;0.5;0.5;;;;;;;14.9;100.0;101520;;;;
2022/09/11 01:49:02;;;;;;;0.5;0.5;;;;;;;14.9;100.0;101520;;;;
2022/09/11 01:50:03;;;;;;;0.5;0.5;;;;;;;14.8;100.0;101530;;;;
2022/09/11 01:51:01;;;;;;;0.5;0.5;;;;;;;14.8;100.0;101530;;;;
2022/09/11 01:52:02;;;;;;;0.5;0.5;;;;;;;14.7;100.0;101530;;;;
2022/09/11 01:53:02;;;;;;;0.5;0.5;;;;;;;14.7;100.0;101530;;;;
2022/09/11 01:54:01;;;;;;;0.6;0.6;;;;;;;14.8;100.0;101530;;;;
2022/09/11 01:55:02;;;;;;;0.6;0.6;;;;;;;14.8;100.0;101530;;;;
2022/09/11 01:56:02;;;;;;;0.6;0.6;;;;;;;14.9;100.0;101540;;;;
2022/09/11 01:57:03;;;;;;;0.6;0.6;;;;;;;14.9;100.0;101540;;;;
2022/09/11 01:58:02;;;;;;;0.6;0.6;;;;;;;14.8;100.0;101540;;;;
2022/09/11 01:59:02;;;;;;;0.6;0.6;;;;;;;14.8;100.0;101540;;;;
2022/09/11 02:00:01;;;;;;;0.6;0.6;;;;;;;14.9;100.0;101540;;;;
2022/09/11 02:01:10;;;;;;;0.6;0.6;;;;;;;14.9;100.0;101540;;;;
2022/09/11 02:02:03;;;;;;;0.6;0.6;;;;;;;14.9;100.0;101540;;;;
2022/09/11 02:03:04;;;;;;;0.6;0.6;;;;;;;14.9;100.0;101540;;;;
2022/09/11 02:04:06;;;;;;;0.6;0.6;;;;;;;14.8;100.0;101540;;;;
2022/09/11 02:05:01;;;;;;;0.6;0.6;;;;;;;14.8;100.0;101540;;;;
2022/09/11 02:06:03;;;;;;;0.6;0.6;;;;;;;14.8;100.0;101540;;;;
2022/09/11 02:07:06;;;;;;;0.6;0.6;;;;;;;14.8;100.0;101540;;;;
2022/09/11 02:08:03;;;;;;;0.6;0.6;;;;;;;14.8;100.0;101540;;;;
2022/09/11 02:09:01;;;;;;;0.6;0.6;;;;;;;14.8;100.0;101540;;;;
2022/09/11 02:10:05;;;;;;;0.6;0.6;;;;;;;14.8;100.0;101540;;;;
2022/09/11 02:11:04;;;;;;;0.6;0.6;;;;;;;14.8;100.0;101540;;;;
2022/09/11 02:12:03;;;;;;;0.6;0.6;;;;;;;14.8;100.0;101540;;;;
2022/09/11 02:13:05;;;;;;;0.6;0.6;;;;;;;14.8;100.0;101540;;;;
2022/09/11 02:14:05;;;;;;;0.5;0.5;;;;;;;14.8;100.0;101540;;;;
2022/09/11 02:15:00;;;;;;;0.5;0.5;;;;;;;14.8;100.0;101540;;;;
2022/09/11 02:16:04;;;;;;;0.5;0.5;;;;;;;14.8;100.0;101540;;;;
2022/09/11 02:17:10;;;;;;;0.5;0.5;;;;;;;14.8;100.0;101540;;;;
2022/09/11 02:18:02;;;;;;;0.5;0.5;;;;;;;14.8;100.0;101540;;;;
2022/09/11 02:19:04;;;;;;;0.5;0.5;;;;;;;14.8;100.0;101540;;;;
2022/09/11 02:20:00;;;;;;;0.5;0.5;;;;;;;14.7;100.0;101540;;;;
2022/09/11 02:21:00;;;;;;;0.5;0.5;;;;;;;14.7;100.0;101540;;;;
2022/09/11 02:22:00;;;;;;;0.5;0.5;;;;;;;14.7;100.0;101540;;;;
2022/09/11 02:23:00;;;;;;;0.5;0.5;;;;;;;14.7;100.0;101540;;;;
2022/09/11 02:24:00;;;;;;;0.5;0.5;;;;;;;14.7;100.0;101540;;;;
2022/09/11 02:25:01;;;;;;;0.5;0.5;;;;;;;14.7;100.0;101540;;;;
2022/09/11 02:26:01;;;;;;;0.5;0.5;;;;;;;14.8;100.0;101540;;;;
2022/09/11 02:27:02;;;;;;;0.5;0.5;;;;;;;14.8;100.0;101540;;;;
2022/09/11 02:28:00;;;;;;;0.5;0.5;;;;;;;14.7;100.0;101530;;;;
2022/09/11 02:29:00;;;;;;;0.5;0.5;;;;;;;14.7;100.0;101530;;;;
2022/09/11 02:30:00;;;;;;;0.5;0.5;;;;;;;14.8;100.0;101530;;;;
2022/09/11 02:31:02;;;;;;;0.5;0.5;;;;;;;14.8;100.0;101530;;;;
2022/09/11 02:32:02;;;;;;;0.5;0.5;;;;;;;14.8;100.0;101530;;;;
2022/09/11 02:33:00;;;;;;;0.5;0.5;;;;;;;14.8;100.0;101530;;;;
2022/09/11 02:34:00;;;;;;;0.5;0.5;;;;;;;14.9;100.0;101540;;;;
2022/09/11 02:35:00;;;;;;;0.5;0.5;;;;;;;14.9;100.0;101540;;;;
2022/09/11 02:36:10;;;;;;;0.5;0.5;;;;;;;14.8;100.0;101540;;;;
2022/09/11 02:37:10;;;;;;;0.5;0.5;;;;;;;14.8;100.0;101540;;;;
2022/09/11 02:38:10;;;;;;;0.5;0.5;;;;;;;14.8;100.0;101540;;;;
2022/09/11 02:39:10;;;;;;;0.5;0.5;;;;;;;14.8;100.0;101540;;;;
2022/09/11 02:40:00;;;;;;;0.5;0.5;;;;;;;14.8;100.0;101540;;;;
2022/09/11 02:41:07;;;;;;;0.5;0.5;;;;;;;14.8;100.0;101540;;;;
2022/09/11 02:42:01;;;;;;;0.5;0.5;;;;;;;14.8;100.0;101540;;;;
2022/09/11 02:43:08;;;;;;;0.5;0.5;;;;;;;14.8;100.0;101540;;;;
2022/09/11 02:44:08;;;;;;;0.5;0.5;;;;;;;14.8;100.0;101540;;;;
2022/09/11 02:45:10;;;;;;;0.5;0.5;;;;;;;14.8;100.0;101540;;;;
2022/09/11 02:46:11;;;;;;;0.5;0.5;;;;;;;14.8;100.0;101540;;;;
2022/09/11 02:47:06;;;;;;;0.5;0.5;;;;;;;14.8;100.0;101540;;;;
2022/09/11 02:48:01;;;;;;;0.5;0.5;;;;;;;14.7;100.0;101540;;;;
2022/09/11 02:49:06;;;;;;;0.5;0.5;;;;;;;14.7;100.0;101540;;;;
2022/09/11 02:50:01;;;;;;;0.5;0.5;;;;;;;14.7;100.0;101540;;;;
2022/09/11 02:51:07;;;;;;;0.5;0.5;;;;;;;14.7;100.0;101540;;;;
2022/09/11 02:52:01;;;;;;;0.5;0.5;;;;;;;14.7;100.0;101550;;;;
2022/09/11 02:53:06;;;;;;;0.5;0.5;;;;;;;14.7;100.0;101550;;;;
2022/09/11 02:54:10;;;;;;;1.3;1.2;;;;;;;14.7;100.0;101550;;;;
2022/09/11 02:55:09;;;;;;;1.3;1.2;;;;;;;14.7;100.0;101550;;;;
2022/09/11 02:56:03;;;;;;;1.3;1.2;;;;;;;14.6;100.0;101550;;;;
2022/09/11 02:57:04;;;;;;;1.3;1.2;;;;;;;14.6;100.0;101550;;;;
2022/09/11 02:58:04;;;;;;;1.3;1.2;;;;;;;14.6;100.0;101560;;;;
2022/09/11 02:59:03;;;;;;;1.3;1.2;;;;;;;14.6;100.0;101560;;;;
2022/09/11 03:00:02;;;;;;;1.3;1.2;;;;;;;14.6;100.0;101560;;;;
2022/09/11 03:01:01;;;;;;;1.3;1.2;;;;;;;14.6;100.0;101560;;;;
2022/09/11 03:02:00;;;;;;;1.3;1.2;;;;;;;14.5;100.0;101560;;;;
2022/09/11 03:03:00;;;;;;;1.3;1.2;;;;;;;14.5;100.0;101560;;;;
2022/09/11 03:04:00;;;;;;;1.3;1.2;;;;;;;14.6;100.0;101560;;;;
2022/09/11 03:05:00;;;;;;;1.3;1.2;;;;;;;14.6;100.0;101560;;;;
2022/09/11 03:06:00;;;;;;;1.3;1.2;;;;;;;14.6;100.0;101550;;;;
2022/09/11 03:07:01;;;;;;;1.3;1.2;;;;;;;14.6;100.0;101550;;;;
2022/09/11 03:08:03;;;;;;;1.3;1.2;;;;;;;14.5;100.0;101560;;;;
2022/09/11 03:09:00;;;;;;;1.3;1.2;;;;;;;14.5;100.0;101560;;;;
2022/09/11 03:10:00;;;;;;;1.3;1.2;;;;;;;14.5;100.0;101560;;;;
2022/09/11 03:11:00;;;;;;;1.3;1.2;;;;;;;14.5;100.0;101560;;;;
2022/09/11 03:12:00;;;;;;;1.3;1.2;;;;;;;14.5;100.0;101560;;;;
2022/09/11 03:13:00;;;;;;;1.3;1.2;;;;;;;14.5;100.0;101560;;;;
2022/09/11 03:14:00;;;;;;;0.9;0.9;;;;;;;14.5;100.0;101560;;;;
2022/09/11 03:15:01;;;;;;;0.9;0.9;;;;;;;14.5;100.0;101560;;;;
2022/09/11 03:16:00;;;;;;;0.9;0.9;;;;;;;14.5;100.0;101560;;;;
2022/09/11 03:17:00;;;;;;;0.9;0.9;;;;;;;14.5;100.0;101560;;;;
2022/09/11 03:18:00;;;;;;;0.9;0.9;;;;;;;14.4;100.0;101560;;;;
2022/09/11 03:19:00;;;;;;;0.9;0.9;;;;;;;14.4;100.0;101560;;;;
2022/09/11 03:20:00;;;;;;;0.9;0.9;;;;;;;14.4;100.0;101560;;;;
2022/09/11 03:21:00;;;;;;;0.9;0.9;;;;;;;14.4;100.0;101560;;;;
2022/09/11 03:22:01;;;;;;;0.9;0.9;;;;;;;14.4;100.0;101560;;;;
2022/09/11 03:23:00;;;;;;;0.9;0.9;;;;;;;14.4;100.0;101560;;;;
2022/09/11 03:24:00;;;;;;;0.9;0.9;;;;;;;14.3;100.0;101560;;;;
2022/09/11 03:25:00;;;;;;;0.9;0.9;;;;;;;14.3;100.0;101560;;;;
2022/09/11 03:26:00;;;;;;;0.9;0.9;;;;;;;14.3;100.0;101560;;;;
2022/09/11 03:27:00;;;;;;;0.9;0.9;;;;;;;14.3;100.0;101560;;;;
2022/09/11 03:28:00;;;;;;;0.9;0.9;;;;;;;14.3;100.0;101560;;;;
2022/09/11 03:29:00;;;;;;;0.9;0.9;;;;;;;14.3;100.0;101560;;;;
2022/09/11 03:30:00;;;;;;;0.9;0.9;;;;;;;14.3;100.0;101560;;;;
2022/09/11 03:31:00;;;;;;;0.9;0.9;;;;;;;14.3;100.0;101560;;;;
2022/09/11 03:32:00;;;;;;;0.9;0.9;;;;;;;14.3;100.0;101560;;;;
2022/09/11 03:33:00;;;;;;;0.9;0.9;;;;;;;14.3;100.0;101560;;;;
2022/09/11 03:34:00;;;;;;;0.8;0.8;;;;;;;14.4;100.0;101560;;;;
2022/09/11 03:35:01;;;;;;;0.8;0.8;;;;;;;14.4;100.0;101560;;;;
2022/09/11 03:36:00;;;;;;;0.8;0.8;;;;;;;14.2;100.0;101560;;;;
2022/09/11 03:37:01;;;;;;;0.8;0.8;;;;;;;14.2;100.0;101560;;;;
2022/09/11 03:38:00;;;;;;;0.8;0.8;;;;;;;14.2;100.0;101560;;;;
2022/09/11 03:39:00;;;;;;;0.8;0.8;;;;;;;14.2;100.0;101560;;;;
2022/09/11 03:40:00;;;;;;;0.8;0.8;;;;;;;14.2;100.0;101570;;;;
2022/09/11 03:41:02;;;;;;;0.8;0.8;;;;;;;14.2;100.0;101570;;;;
2022/09/11 03:42:00;;;;;;;0.8;0.8;;;;;;;14.2;100.0;101570;;;;
2022/09/11 03:43:01;;;;;;;0.8;0.8;;;;;;;14.2;100.0;101570;;;;
2022/09/11 03:44:00;;;;;;;0.8;0.8;;;;;;;14.2;100.0;101570;;;;
2022/09/11 03:45:00;;;;;;;0.8;0.8;;;;;;;14.2;100.0;101570;;;;
2022/09/11 03:46:00;;;;;;;0.8;0.8;;;;;;;14.2;100.0;101560;;;;
2022/09/11 03:47:00;;;;;;;0.8;0.8;;;;;;;14.2;100.0;101560;;;;
2022/09/11 03:48:01;;;;;;;0.8;0.8;;;;;;;14.2;100.0;101560;;;;
2022/09/11 03:49:01;;;;;;;0.8;0.8;;;;;;;14.2;100.0;101560;;;;
2022/09/11 03:50:00;;;;;;;0.8;0.8;;;;;;;14.2;100.0;101560;;;;
2022/09/11 03:51:00;;;;;;;0.8;0.8;;;;;;;14.2;100.0;101560;;;;
2022/09/11 03:52:00;;;;;;;0.8;0.8;;;;;;;14.2;100.0;101560;;;;
2022/09/11 03:53:00;;;;;;;0.8;0.8;;;;;;;14.2;100.0;101560;;;;
2022/09/11 03:54:00;;;;;;;0.8;0.8;;;;;;;14.2;100.0;101570;;;;
2022/09/11 03:55:00;;;;;;;0.8;0.8;;;;;;;14.2;100.0;101570;;;;
2022/09/11 03:56:02;;;;;;;0.8;0.8;;;;;;;14.2;100.0;101560;;;;
2022/09/11 03:57:00;;;;;;;0.8;0.8;;;;;;;14.2;100.0;101560;;;;
2022/09/11 03:58:00;;;;;;;0.8;0.8;;;;;;;14.2;100.0;101570;;;;
2022/09/11 03:59:00;;;;;;;0.8;0.8;;;;;;;14.2;100.0;101570;;;;
2022/09/11 04:00:00;;;;;;;0.8;0.8;;;;;;;14.2;100.0;101570;;;;
2022/09/11 04:01:00;;;;;;;0.8;0.8;;;;;;;14.2;100.0;101570;;;;
2022/09/11 04:02:00;;;;;;;0.8;0.8;;;;;;;14.2;100.0;101570;;;;
2022/09/11 04:03:00;;;;;;;0.8;0.8;;;;;;;14.2;100.0;101570;;;;
2022/09/11 04:04:00;;;;;;;0.8;0.8;;;;;;;14.3;100.0;101570;;;;
2022/09/11 04:05:01;;;;;;;0.8;0.8;;;;;;;14.3;100.0;101570;;;;
2022/09/11 04:06:01;;;;;;;0.8;0.8;;;;;;;14.3;100.0;101570;;;;
2022/09/11 04:07:00;;;;;;;0.8;0.8;;;;;;;14.3;100.0;101570;;;;
2022/09/11 04:08:01;;;;;;;0.8;0.8;;;;;;;14.3;100.0;101580;;;;
2022/09/11 04:09:00;;;;;;;0.8;0.8;;;;;;;14.3;100.0;101580;;;;
2022/09/11 04:10:00;;;;;;;0.8;0.8;;;;;;;14.3;100.0;101580;;;;
2022/09/11 04:11:01;;;;;;;0.8;0.8;;;;;;;14.3;100.0;101580;;;;
2022/09/11 04:12:00;;;;;;;0.8;0.8;;;;;;;14.2;100.0;101580;;;;
2022/09/11 04:13:00;;;;;;;0.7;0.7;;;;;;;14.2;100.0;101580;;;;
2022/09/11 04:14:02;;;;;;;0.7;0.7;;;;;;;14.3;100.0;101580;;;;
2022/09/11 04:15:01;;;;;;;0.7;0.7;;;;;;;14.3;100.0;101580;;;;
2022/09/11 04:16:01;;;;;;;0.7;0.7;;;;;;;14.3;100.0;101580;;;;
2022/09/11 04:17:00;;;;;;;0.7;0.7;;;;;;;14.3;100.0;101580;;;;
2022/09/11 04:18:06;;;;;;;0.7;0.7;;;;;;;14.3;100.0;101590;;;;
2022/09/11 04:19:00;;;;;;;0.7;0.7;;;;;;;14.3;100.0;101590;;;;
2022/09/11 04:20:00;;;;;;;0.7;0.7;;;;;;;14.3;100.0;101590;;;;
2022/09/11 04:21:04;;;;;;;0.7;0.7;;;;;;;14.3;100.0;101590;;;;
2022/09/11 04:22:00;;;;;;;0.7;0.7;;;;;;;14.3;100.0;101580;;;;
2022/09/11 04:23:01;;;;;;;0.7;0.7;;;;;;;14.3;100.0;101580;;;;
2022/09/11 04:24:00;;;;;;;0.7;0.7;;;;;;;14.3;100.0;101580;;;;
2022/09/11 04:25:00;;;;;;;0.7;0.7;;;;;;;14.3;100.0;101580;;;;
2022/09/11 04:26:00;;;;;;;0.7;0.7;;;;;;;14.4;100.0;101580;;;;
2022/09/11 04:27:01;;;;;;;0.7;0.7;;;;;;;14.4;100.0;101580;;;;
2022/09/11 04:28:00;;;;;;;0.7;0.7;;;;;;;14.3;100.0;101580;;;;
2022/09/11 04:29:00;;;;;;;0.7;0.7;;;;;;;14.3;100.0;101580;;;;
2022/09/11 04:30:00;;;;;;;0.7;0.7;;;;;;;14.3;100.0;101570;;;;
2022/09/11 04:31:02;;;;;;;0.7;0.7;;;;;;;14.3;100.0;101570;;;;
2022/09/11 04:32:00;;;;;;;0.7;0.7;;;;;;;14.3;100.0;101570;;;;
2022/09/11 04:33:01;;;;;;;0.7;0.7;;;;;;;14.3;100.0;101570;;;;
2022/09/11 04:34:00;;;;;;;0.7;0.7;;;;;;;14.3;100.0;101570;;;;
2022/09/11 04:35:01;;;;;;;0.7;0.7;;;;;;;14.3;100.0;101570;;;;
2022/09/11 04:36:05;;;;;;;0.7;0.7;;;;;;;14.1;100.0;101580;;;;
2022/09/11 04:37:00;;;;;;;0.7;0.7;;;;;;;14.1;100.0;101580;;;;
2022/09/11 04:38:00;;;;;;;0.7;0.7;;;;;;;14.1;100.0;101580;;;;
2022/09/11 04:39:00;;;;;;;0.7;0.7;;;;;;;14.1;100.0;101580;;;;
2022/09/11 04:40:00;;;;;;;0.7;0.7;;;;;;;14.2;100.0;101580;;;;
2022/09/11 04:41:01;;;;;;;0.7;0.7;;;;;;;14.2;100.0;101580;;;;
2022/09/11 04:42:01;;;;;;;0.7;0.7;;;;;;;14.2;100.0;101590;;;;
2022/09/11 04:43:01;;;;;;;0.7;0.7;;;;;;;14.2;100.0;101590;;;;
2022/09/11 04:44:05;;;;;;;0.7;0.7;;;;;;;14.2;100.0;101590;;;;
2022/09/11 04:45:00;;;;;;;0.7;0.7;;;;;;;14.2;100.0;101590;;;;
2022/09/11 04:46:01;;;;;;;0.7;0.7;;;;;;;14.2;100.0;101580;;;;
2022/09/11 04:47:00;;;;;;;0.7;0.7;;;;;;;14.2;100.0;101580;;;;
2022/09/11 04:48:00;;;;;;;0.7;0.7;;;;;;;14.2;100.0;101580;;;;
2022/09/11 04:49:01;;;;;;;0.7;0.7;;;;;;;14.2;100.0;101580;;;;
2022/09/11 04:50:00;;;;;;;0.7;0.7;;;;;;;14.2;100.0;101580;;;;
2022/09/11 04:51:01;;;;;;;0.7;0.7;;;;;;;14.2;100.0;101580;;;;
2022/09/11 04:52:04;;;;;;;0.7;0.7;;;;;;;14.1;100.0;101580;;;;
2022/09/11 04:53:00;;;;;;;0.4;0.4;;;;;;;14.1;100.0;101580;;;;
2022/09/11 04:54:00;;;;;;;0.4;0.4;;;;;;;14.2;100.0;101580;;;;
2022/09/11 04:55:00;;;;;;;0.4;0.4;;;;;;;14.2;100.0;101580;;;;
2022/09/11 04:56:01;;;;;;;0.4;0.4;;;;;;;14.1;100.0;101580;;;;
2022/09/11 04:57:01;;;;;;;0.4;0.4;;;;;;;14.1;100.0;101580;;;;
2022/09/11 04:58:00;;;;;;;0.4;0.4;;;;;;;14.1;100.0;101580;;;;
2022/09/11 04:59:01;;;;;;;0.4;0.4;;;;;;;14.1;100.0;101580;;;;
2022/09/11 05:00:00;;;;;;;0.4;0.4;;;;;;;14.1;100.0;101580;;;;
2022/09/11 05:01:00;;;;;;;0.4;0.4;;;;;;;14.1;100.0;101580;;;;
2022/09/11 05:02:00;;;;;;;0.4;0.4;;;;;;;14.1;100.0;101580;;;;
2022/09/11 05:03:00;;;;;;;0.4;0.4;;;;;;;14.1;100.0;101580;;;;
2022/09/11 05:04:00;;;;;;;0.4;0.4;;;;;;;14.1;100.0;101580;;;;
2022/09/11 05:05:00;;;;;;;0.4;0.4;;;;;;;14.1;100.0;101580;;;;
2022/09/11 05:06:08;;;;;;;0.4;0.4;;;;;;;14.1;100.0;101580;;;;
2022/09/11 05:07:00;;;;;;;0.4;0.4;;;;;;;14.1;100.0;101580;;;;
2022/09/11 05:08:00;;;;;;;0.4;0.4;;;;;;;14.0;100.0;101580;;;;
2022/09/11 05:09:01;;;;;;;0.4;0.4;;;;;;;14.0;100.0;101580;;;;
2022/09/11 05:10:00;;;;;;;0.4;0.4;;;;;;;14.0;100.0;101590;;;;
2022/09/11 05:11:00;;;;;;;0.4;0.4;;;;;;;14.0;100.0;101590;;;;
2022/09/11 05:12:01;;;;;;;0.4;0.4;;;;;;;14.1;100.0;101580;;;;
2022/09/11 05:13:00;;;;;;;1.0;1.0;;;;;;;14.1;100.0;101580;;;;
2022/09/11 05:14:00;;;;;;;1.0;1.0;;;;;;;14.0;100.0;101590;;;;
2022/09/11 05:15:00;;;;;;;1.0;1.0;;;;;;;14.0;100.0;101590;;;;
2022/09/11 05:16:04;;;;;;;1.0;1.0;;;;;;;14.1;100.0;101590;;;;
2022/09/11 05:17:00;;;;;;;1.0;1.0;;;;;;;14.1;100.0;101590;;;;
2022/09/11 05:18:00;;;;;;;1.0;1.0;;;;;;;14.1;100.0;101590;;;;
2022/09/11 05:19:01;;;;;;;1.0;1.0;;;;;;;14.1;100.0;101590;;;;
2022/09/11 05:20:00;;;;;;;1.0;1.0;;;;;;;14.0;100.0;101600;;;;
2022/09/11 05:21:01;;;;;;;1.0;1.0;;;;;;;14.0;100.0;101600;;;;
2022/09/11 05:22:00;;;;;;;1.0;1.0;;;;;;;14.0;100.0;101600;;;;
2022/09/11 05:23:00;;;;;;;1.0;1.0;;;;;;;14.0;100.0;101600;;;;
2022/09/11 05:24:00;;;;;;;1.0;1.0;;;;;;;14.0;100.0;101600;;;;
2022/09/11 05:25:00;;;;;;;1.0;1.0;;;;;;;14.0;100.0;101600;;;;
2022/09/11 05:26:01;;;;;;;1.0;1.0;;;;;;;14.0;100.0;101600;;;;
2022/09/11 05:27:00;;;;;;;1.0;1.0;;;;;;;14.0;100.0;101600;;;;
2022/09/11 05:28:00;;;;;;;1.0;1.0;;;;;;;13.9;100.0;101610;;;;
2022/09/11 05:29:01;;;;;;;1.0;1.0;;;;;;;13.9;100.0;101610;;;;
2022/09/11 05:30:00;;;;;;;1.0;1.0;;;;;;;14.0;100.0;101610;;;;
2022/09/11 05:31:01;;;;;;;1.0;1.0;;;;;;;14.0;100.0;101610;;;;
2022/09/11 05:32:01;;;;;;;1.0;1.0;;;;;;;14.0;100.0;101610;;;;
2022/09/11 05:33:00;;;;;;;1.2;1.2;;;;;;;14.0;100.0;101610;;;;
2022/09/11 05:34:00;;;;;;;1.2;1.2;;;;;;;14.1;100.0;101620;;;;
2022/09/11 05:35:00;;;;;;;1.2;1.2;;;;;;;14.1;100.0;101620;;;;
2022/09/11 05:36:02;;;;;;;1.2;1.2;;;;;;;14.1;100.0;101620;;;;
2022/09/11 05:37:01;;;;;;;1.2;1.2;;;;;;;14.1;100.0;101620;;;;
2022/09/11 05:38:00;;;;;;;1.2;1.2;;;;;;;14.1;100.0;101620;;;;
2022/09/11 05:39:00;;;;;;;1.2;1.2;;;;;;;14.1;100.0;101620;;;;
2022/09/11 05:40:00;;;;;;;1.2;1.2;;;;;;;14.0;100.0;101630;;;;
2022/09/11 05:41:00;;;;;;;1.2;1.2;;;;;;;14.0;100.0;101630;;;;
2022/09/11 05:42:00;;;;;;;1.2;1.2;;;;;;;14.0;100.0;101630;;;;
2022/09/11 05:43:00;;;;;;;1.2;1.2;;;;;;;14.0;100.0;101630;;;;
2022/09/11 05:44:00;;;;;;;1.2;1.2;;;;;;;13.9;100.0;101640;;;;
2022/09/11 05:45:00;;;;;;;1.2;1.2;;;;;;;13.9;100.0;101640;;;;
2022/09/11 05:46:00;;;;;;;1.2;1.2;;;;;;;14.0;100.0;101640;;;;
2022/09/11 05:47:00;;;;;;;1.2;1.2;;;;;;;14.0;100.0;101640;;;;
2022/09/11 05:48:02;;;;;;;1.2;1.2;;;;;;;14.1;100.0;101640;;;;
2022/09/11 05:49:00;;;;;;;1.2;1.2;;;;;;;14.1;100.0;101640;;;;
2022/09/11 05:50:00;;;;;;;1.2;1.2;;;;;;;14.1;100.0;101640;;;;
2022/09/11 05:51:01;;;;;;;1.2;1.2;;;;;;;14.1;100.0;101640;;;;
2022/09/11 05:52:00;;;;;;;1.2;1.2;;;;;;;14.2;100.0;101640;;;;
2022/09/11 05:53:00;;;;;;;0.4;0.4;;;;;;;14.2;100.0;101640;;;;
2022/09/11 05:54:00;;;;;;;0.4;0.4;;;;;;;14.1;100.0;101650;;;;
2022/09/11 05:55:00;;;;;;;0.4;0.4;;;;;;;14.1;100.0;101650;;;;
2022/09/11 05:56:08;;;;;;;0.4;0.4;;;;;;;14.2;100.0;101650;;;;
2022/09/11 05:57:04;;;;;;;0.4;0.4;;;;;;;14.2;100.0;101650;;;;
2022/09/11 05:58:01;;;;;;;0.4;0.4;;;;;;;14.2;100.0;101650;;;;
2022/09/11 05:59:01;;;;;;;0.4;0.4;;;;;;;14.2;100.0;101650;;;;
2022/09/11 06:00:00;;;;;;;0.4;0.4;;;;;;;14.2;100.0;101660;;;;
2022/09/11 06:01:02;;;;;;;0.4;0.4;;;;;;;14.2;100.0;101660;;;;
2022/09/11 06:02:00;;;;;;;0.4;0.4;;;;;;;14.3;100.0;101660;;;;
2022/09/11 06:03:00;;;;;;;0.4;0.4;;;;;;;14.3;100.0;101660;;;;
2022/09/11 06:04:01;;;;;;;0.4;0.4;;;;;;;14.3;100.0;101660;;;;
2022/09/11 06:05:00;;;;;;;0.4;0.4;;;;;;;14.3;100.0;101660;;;;
2022/09/11 06:06:01;;;;;;;0.4;0.4;;;;;;;14.4;100.0;101660;;;;
2022/09/11 06:07:00;;;;;;;0.4;0.4;;;;;;;14.4;100.0;101660;;;;
2022/09/11 06:08:00;;;;;;;0.4;0.4;;;;;;;14.4;100.0;101660;;;;
2022/09/11 06:09:00;;;;;;;0.4;0.4;;;;;;;14.4;100.0;101660;;;;
2022/09/11 06:10:03;;;;;;;0.4;0.4;;;;;;;14.4;100.0;101660;;;;
2022/09/11 06:11:01;;;;;;;0.4;0.4;;;;;;;14.4;100.0;101660;;;;
2022/09/11 06:12:00;;;;;;;0.4;0.4;;;;;;;14.4;100.0;101670;;;;
2022/09/11 06:13:00;;;;;;;0.5;0.5;;;;;;;14.4;100.0;101670;;;;
2022/09/11 06:14:00;;;;;;;0.5;0.5;;;;;;;14.4;100.0;101670;;;;
2022/09/11 06:15:00;;;;;;;0.5;0.5;;;;;;;14.4;100.0;101670;;;;
2022/09/11 06:16:01;;;;;;;0.5;0.5;;;;;;;14.4;100.0;101680;;;;
2022/09/11 06:17:00;;;;;;;0.5;0.5;;;;;;;14.4;100.0;101680;;;;
2022/09/11 06:18:00;;;;;;;0.5;0.5;;;;;;;14.5;100.0;101680;;;;
2022/09/11 06:19:00;;;;;;;0.5;0.5;;;;;;;14.5;100.0;101680;;;;
2022/09/11 06:20:00;;;;;;;0.5;0.5;;;;;;;14.5;100.0;101680;;;;
2022/09/11 06:21:01;;;;;;;0.5;0.5;;;;;;;14.5;100.0;101680;;;;
2022/09/11 06:22:00;;;;;;;0.5;0.5;;;;;;;14.6;100.0;101680;;;;